Time;durP1;ratioP1;P1;durP2;ratioP2;P2;SDS_P1;SDS_P2;PMS_P1;PMS_P2;Temp;Humidity;BMP_temperature;BMP_pressure;BME280_temperature;BME280_humidity;BME280_pressure;Samples;Min_cycle;Max_cycle;Signal;HPM_P1;HPM_P2
2023/10/23 00:00:28;;;;;;;0.10;0.10;;;;;;;;;;5072006;28;20373;-70
2023/10/23 00:03:03;;;;;;;0.10;0.10;;;;;;;;;;5080900;28;20037;-71
2023/10/23 00:05:29;;;;;;;0.10;0.10;;;;;;;;;;5054479;28;20086;-71
2023/10/23 00:07:55;;;;;;;0.10;0.10;;;;;;;;;;5055279;28;20079;-70
2023/10/23 00:10:21;;;;;;;0.10;0.10;;;;;;;;;;5073122;28;20072;-71
2023/10/23 00:12:49;;;;;;;0.10;0.10;;;;;;;;;;5054950;28;20090;-69
2023/10/23 00:15:15;;;;;;;0.10;0.10;;;;;;;;;;5055296;28;20032;-69
2023/10/23 00:17:46;;;;;;;0.10;0.10;;;;;;;;;;5070968;28;20337;-69
2023/10/23 00:20:15;;;;;;;0.10;0.10;;;;;;;;;;5055691;28;20105;-69
2023/10/23 00:22:41;;;;;;;0.10;0.10;;;;;;;;;;5072661;28;20044;-68
2023/10/23 00:25:12;;;;;;;0.10;0.10;;;;;;;;;;5073378;28;20366;-69
2023/10/23 00:27:37;;;;;;;0.10;0.10;;;;;;;;;;5057336;28;20059;-68
2023/10/23 00:30:06;;;;;;;0.10;0.10;;;;;;;;;;5074428;28;20075;-69
2023/10/23 00:32:40;;;;;;;0.60;0.60;;;;;;;;;;5075391;28;20043;-71
2023/10/23 00:35:11;;;;;;;0.10;0.10;;;;;;;;;;5092730;28;20032;-70
2023/10/23 00:37:39;;;;;;;0.20;0.20;;;;;;;;;;5074253;28;20047;-69
2023/10/23 00:40:11;;;;;;;1.17;0.77;;;;;;;;;;5092355;28;20040;-70
2023/10/23 00:42:40;;;;;;;0.10;0.10;;;;;;;;;;5074694;28;20418;-68
2023/10/23 00:45:15;;;;;;;0.10;0.10;;;;;;;;;;5058251;28;20032;-69
2023/10/23 00:47:44;;;;;;;0.10;0.10;;;;;;;;;;5075154;28;20046;-68
2023/10/23 00:50:13;;;;;;;0.10;0.10;;;;;;;;;;5092961;28;20480;-69
2023/10/23 00:52:44;;;;;;;0.10;0.10;;;;;;;;;;5055170;28;20372;-69
2023/10/23 00:55:11;;;;;;;0.20;0.20;;;;;;;;;;5089811;28;20097;-70
2023/10/23 00:57:37;;;;;;;0.10;0.10;;;;;;;;;;5071220;28;20593;-69
2023/10/23 01:00:09;;;;;;;0.10;0.10;;;;;;;;;;5074155;28;20170;-69
2023/10/23 01:02:41;;;;;;;0.10;0.10;;;;;;;;;;5074670;28;20040;-68
2023/10/23 01:05:09;;;;;;;0.10;0.10;;;;;;;;;;5092847;28;20032;-69
2023/10/23 01:07:41;;;;;;;0.20;0.20;;;;;;;;;;5057896;28;20036;-68
2023/10/23 01:10:07;;;;;;;0.20;0.20;;;;;;;;;;5074100;28;20032;-68
2023/10/23 01:12:36;;;;;;;0.10;0.10;;;;;;;;;;5091420;28;20067;-69
2023/10/23 01:15:10;;;;;;;0.20;0.20;;;;;;;;;;5057752;28;20032;-69
2023/10/23 01:17:39;;;;;;;0.13;0.13;;;;;;;;;;5095104;28;20031;-69
2023/10/23 01:20:12;;;;;;;0.10;0.10;;;;;;;;;;5078813;28;20043;-69
2023/10/23 01:22:40;;;;;;;0.10;0.10;;;;;;;;;;5096241;28;20400;-69
2023/10/23 01:25:21;;;;;;;0.10;0.10;;;;;;;;;;5078007;28;20135;-69
2023/10/23 01:27:50;;;;;;;0.10;0.10;;;;;;;;;;5077176;28;20043;-69
2023/10/23 01:30:16;;;;;;;0.10;0.10;;;;;;;;;;5095863;28;20032;-69
2023/10/23 01:32:42;;;;;;;0.10;0.10;;;;;;;;;;5078129;28;20097;-69
2023/10/23 01:35:13;;;;;;;0.10;0.10;;;;;;;;;;5061367;28;20035;-69
2023/10/23 01:37:41;;;;;;;0.13;0.13;;;;;;;;;;5078004;28;20434;-69
2023/10/23 01:40:08;;;;;;;0.10;0.10;;;;;;;;;;5060880;28;20441;-69
2023/10/23 01:42:34;;;;;;;0.10;0.10;;;;;;;;;;5095694;28;20043;-69
2023/10/23 01:45:00;;;;;;;0.10;0.10;;;;;;;;;;5095807;28;20024;-69
2023/10/23 01:47:28;;;;;;;0.10;0.10;;;;;;;;;;5077493;28;20074;-69
2023/10/23 01:49:54;;;;;;;0.20;0.20;;;;;;;;;;5074997;28;20064;-69
2023/10/23 01:52:25;;;;;;;0.10;0.10;;;;;;;;;;5095808;28;20077;-69
2023/10/23 01:54:54;;;;;;;0.10;0.10;;;;;;;;;;5095517;28;20035;-69
2023/10/23 01:57:22;;;;;;;0.10;0.10;;;;;;;;;;5060582;28;20047;-69
2023/10/23 01:59:50;;;;;;;0.10;0.10;;;;;;;;;;5077221;28;20067;-70
2023/10/23 02:02:19;;;;;;;0.10;0.10;;;;;;;;;;5077251;28;20510;-70
2023/10/23 02:04:45;;;;;;;0.20;0.20;;;;;;;;;;5060799;28;20032;-69
2023/10/23 02:07:10;;;;;;;0.10;0.10;;;;;;;;;;5093913;28;20100;-69
2023/10/23 02:09:36;;;;;;;0.10;0.10;;;;;;;;;;5075334;28;20039;-68
2023/10/23 02:12:09;;;;;;;0.20;0.20;;;;;;;;;;5077814;28;20034;-69
2023/10/23 02:14:35;;;;;;;0.10;0.10;;;;;;;;;;5076875;28;20555;-68
2023/10/23 02:17:03;;;;;;;0.10;0.10;;;;;;;;;;5095266;28;20111;-68
2023/10/23 02:19:30;;;;;;;0.10;0.10;;;;;;;;;;5095184;28;20032;-69
2023/10/23 02:21:55;;;;;;;0.10;0.10;;;;;;;;;;5076907;28;20089;-69
2023/10/23 02:24:21;;;;;;;0.10;0.10;;;;;;;;;;5094619;28;20039;-69
2023/10/23 02:26:47;;;;;;;0.10;0.10;;;;;;;;;;5095034;28;20059;-68
2023/10/23 02:29:16;;;;;;;0.10;0.10;;;;;;;;;;5076502;28;20035;-69
2023/10/23 02:31:42;;;;;;;0.10;0.10;;;;;;;;;;5094700;28;20075;-69
2023/10/23 02:34:08;;;;;;;0.10;0.10;;;;;;;;;;5076879;28;20040;-69
2023/10/23 02:36:34;;;;;;;0.10;0.10;;;;;;;;;;5076664;28;20391;-69
2023/10/23 02:39:09;;;;;;;0.10;0.10;;;;;;;;;;5092668;28;20036;-69
2023/10/23 02:41:36;;;;;;;0.20;0.20;;;;;;;;;;5057082;28;20039;-69
2023/10/23 02:44:02;;;;;;;0.10;0.10;;;;;;;;;;5094868;28;20036;-69
2023/10/23 02:46:27;;;;;;;0.10;0.10;;;;;;;;;;5094858;28;20856;-69
2023/10/23 02:48:53;;;;;;;0.10;0.10;;;;;;;;;;5059433;28;20078;-68
2023/10/23 02:51:29;;;;;;;0.17;0.17;;;;;;;;;;5094541;28;20039;-69
2023/10/23 02:53:55;;;;;;;0.10;0.10;;;;;;;;;;5072148;28;20098;-68
2023/10/23 02:56:23;;;;;;;0.10;0.10;;;;;;;;;;5094607;28;20024;-68
2023/10/23 02:58:52;;;;;;;0.10;0.10;;;;;;;;;;5091256;28;20036;-68
2023/10/23 03:01:23;;;;;;;0.10;0.10;;;;;;;;;;5093518;28;20032;-69
2023/10/23 03:03:52;;;;;;;0.10;0.10;;;;;;;;;;5053966;28;20047;-69
2023/10/23 03:06:21;;;;;;;0.10;0.10;;;;;;;;;;5073009;28;20032;-70
2023/10/23 03:08:47;;;;;;;0.10;0.10;;;;;;;;;;5090537;28;20070;-68
2023/10/23 03:11:18;;;;;;;0.10;0.10;;;;;;;;;;5090353;28;20046;-69
2023/10/23 03:13:44;;;;;;;0.10;0.10;;;;;;;;;;5071643;28;20047;-69
2023/10/23 03:16:13;;;;;;;0.10;0.10;;;;;;;;;;5068947;28;20319;-69
2023/10/23 03:18:39;;;;;;;0.10;0.10;;;;;;;;;;5054075;28;20044;-69
2023/10/23 03:21:05;;;;;;;0.10;0.10;;;;;;;;;;5072311;28;20039;-69
2023/10/23 03:23:41;;;;;;;0.10;0.10;;;;;;;;;;5090461;28;20488;-69
2023/10/23 03:26:09;;;;;;;0.10;0.10;;;;;;;;;;5055996;28;20502;-69
2023/10/23 03:28:37;;;;;;;0.10;0.10;;;;;;;;;;5054466;28;20493;-70
2023/10/23 03:31:06;;;;;;;0.10;0.10;;;;;;;;;;5054931;28;20083;-69
2023/10/23 03:33:32;;;;;;;0.10;0.10;;;;;;;;;;5053185;28;20036;-69
2023/10/23 03:35:58;;;;;;;0.10;0.10;;;;;;;;;;5090428;28;20520;-68
2023/10/23 03:38:23;;;;;;;0.17;0.17;;;;;;;;;;5089625;28;20035;-69
2023/10/23 03:40:55;;;;;;;0.10;0.10;;;;;;;;;;5071269;28;20098;-71
2023/10/23 03:43:22;;;;;;;0.10;0.10;;;;;;;;;;5051436;28;20047;-69
2023/10/23 03:45:56;;;;;;;0.10;0.10;;;;;;;;;;5052590;28;20036;-70
2023/10/23 03:48:27;;;;;;;0.10;0.10;;;;;;;;;;5069484;28;20035;-69
2023/10/23 03:51:07;;;;;;;0.10;0.10;;;;;;;;;;5086976;28;20046;-70
2023/10/23 03:53:36;;;;;;;0.10;0.10;;;;;;;;;;5089472;28;20058;-69
2023/10/23 03:56:08;;;;;;;0.10;0.10;;;;;;;;;;5089956;28;20032;-69
2023/10/23 03:58:40;;;;;;;0.10;0.10;;;;;;;;;;5071631;28;20381;-69
2023/10/23 04:01:06;;;;;;;0.10;0.10;;;;;;;;;;5089550;28;20035;-69
2023/10/23 04:03:31;;;;;;;0.10;0.10;;;;;;;;;;5089968;28;20170;-69
2023/10/23 04:06:00;;;;;;;0.10;0.10;;;;;;;;;;5071217;28;20155;-69
2023/10/23 04:08:28;;;;;;;0.10;0.10;;;;;;;;;;5087848;28;20028;-69
2023/10/23 04:11:00;;;;;;;0.10;0.10;;;;;;;;;;5089165;28;20043;-69
2023/10/23 04:13:35;;;;;;;0.10;0.10;;;;;;;;;;5071671;28;20044;-69
2023/10/23 04:16:12;;;;;;;0.15;0.15;;;;;;;;;;5089519;28;20040;-71
2023/10/23 04:18:43;;;;;;;0.10;0.10;;;;;;;;;;5071629;28;20064;-69
2023/10/23 04:21:09;;;;;;;0.10;0.10;;;;;;;;;;5089579;28;20044;-69
2023/10/23 04:23:36;;;;;;;0.10;0.10;;;;;;;;;;5071064;28;20028;-68
2023/10/23 04:26:05;;;;;;;0.10;0.10;;;;;;;;;;5071033;28;20046;-69
2023/10/23 04:28:32;;;;;;;0.10;0.10;;;;;;;;;;5070190;28;20077;-69
2023/10/23 04:31:01;;;;;;;0.10;0.10;;;;;;;;;;5089306;28;20036;-69
2023/10/23 04:33:27;;;;;;;0.10;0.10;;;;;;;;;;5089282;28;20070;-69
2023/10/23 04:36:02;;;;;;;0.10;0.10;;;;;;;;;;5089384;28;20090;-68
2023/10/23 04:38:34;;;;;;;0.10;0.10;;;;;;;;;;5089156;28;20144;-68
2023/10/23 04:40:59;;;;;;;0.10;0.10;;;;;;;;;;5089605;28;20136;-69
2023/10/23 04:43:30;;;;;;;0.10;0.10;;;;;;;;;;5089428;28;20506;-68
2023/10/23 04:46:17;;;;;;;0.10;0.10;;;;;;;;;;5070792;28;20040;-68
2023/10/23 04:48:43;;;;;;;0.10;0.10;;;;;;;;;;5088391;28;20036;-68
2023/10/23 04:51:09;;;;;;;0.10;0.10;;;;;;;;;;5088170;28;20027;-68
2023/10/23 04:53:40;;;;;;;0.10;0.10;;;;;;;;;;5070413;28;20039;-69
2023/10/23 04:56:09;;;;;;;0.10;0.10;;;;;;;;;;5071037;28;20409;-69
2023/10/23 04:58:34;;;;;;;0.10;0.10;;;;;;;;;;5070227;28;20036;-69
2023/10/23 05:01:14;;;;;;;0.10;0.10;;;;;;;;;;5087849;28;20032;-69
2023/10/23 05:03:40;;;;;;;0.10;0.10;;;;;;;;;;5069506;28;20055;-69
2023/10/23 05:06:06;;;;;;;0.10;0.10;;;;;;;;;;5053111;28;20055;-69
2023/10/23 05:08:34;;;;;;;0.10;0.10;;;;;;;;;;5069177;28;20391;-70
2023/10/23 05:11:10;;;;;;;0.20;0.20;;;;;;;;;;5069336;28;20035;-69
2023/10/23 05:13:38;;;;;;;0.10;0.10;;;;;;;;;;5070810;28;20029;-69
2023/10/23 05:16:05;;;;;;;0.45;0.45;;;;;;;;;;5069517;28;20032;-69
2023/10/23 05:18:33;;;;;;;0.10;0.10;;;;;;;;;;5053539;28;20036;-69
2023/10/23 05:21:12;;;;;;;0.10;0.10;;;;;;;;;;5066321;28;20476;-69
2023/10/23 05:23:39;;;;;;;0.15;0.15;;;;;;;;;;5069716;28;20035;-71
2023/10/23 05:26:14;;;;;;;0.10;0.10;;;;;;;;;;5070078;28;20032;-71
2023/10/23 05:28:43;;;;;;;0.10;0.10;;;;;;;;;;5087896;28;20196;-71
2023/10/23 05:31:09;;;;;;;0.10;0.10;;;;;;;;;;5053457;28;20089;-70
2023/10/23 05:33:41;;;;;;;0.10;0.10;;;;;;;;;;5084813;28;20492;-70
2023/10/23 05:36:09;;;;;;;0.10;0.10;;;;;;;;;;5066403;28;20486;-70
2023/10/23 05:38:41;;;;;;;0.10;0.10;;;;;;;;;;5077723;28;20109;-70
2023/10/23 05:41:15;;;;;;;0.10;0.10;;;;;;;;;;5049184;28;20036;-69
2023/10/23 05:43:44;;;;;;;0.10;0.10;;;;;;;;;;5049416;28;20404;-70
2023/10/23 05:46:10;;;;;;;0.10;0.10;;;;;;;;;;5050889;28;20168;-70
2023/10/23 05:48:36;;;;;;;0.10;0.10;;;;;;;;;;5088239;28;20036;-70
2023/10/23 05:51:05;;;;;;;0.00;0.00;;;;;;;;;;5087831;28;20036;-70
2023/10/23 05:53:31;;;;;;;0.10;0.10;;;;;;;;;;5087810;28;20071;-71
2023/10/23 05:56:03;;;;;;;0.10;0.10;;;;;;;;;;5070040;28;20103;-70
2023/10/23 05:58:37;;;;;;;0.10;0.10;;;;;;;;;;5087689;28;20032;-70
2023/10/23 06:01:12;;;;;;;0.10;0.10;;;;;;;;;;5069665;28;20387;-69
2023/10/23 06:03:44;;;;;;;0.10;0.10;;;;;;;;;;5072469;28;20042;-69
2023/10/23 06:06:12;;;;;;;0.10;0.10;;;;;;;;;;5072591;28;20047;-69
2023/10/23 06:08:38;;;;;;;0.25;0.25;;;;;;;;;;5073108;28;20054;-69
2023/10/23 06:11:07;;;;;;;0.10;0.10;;;;;;;;;;5091512;28;20020;-70
2023/10/23 06:13:47;;;;;;;0.10;0.10;;;;;;;;;;5091823;28;20048;-69
2023/10/23 06:16:12;;;;;;;0.10;0.10;;;;;;;;;;5073569;28;20036;-69
2023/10/23 06:18:38;;;;;;;0.10;0.10;;;;;;;;;;5072929;28;20044;-69
2023/10/23 06:21:09;;;;;;;0.10;0.10;;;;;;;;;;5091292;28;20024;-70
2023/10/23 06:23:38;;;;;;;0.10;0.10;;;;;;;;;;5073277;28;20443;-70
2023/10/23 06:26:07;;;;;;;;;;;;;;;;;;5091474;28;20555;-71
2023/10/23 06:28:33;;;;;;;0.10;0.10;;;;;;;;;;5090913;28;19916;-70
2023/10/23 06:31:05;;;;;;;0.15;0.15;;;;;;;;;;5091254;28;20032;-70
2023/10/23 06:33:31;;;;;;;0.20;0.20;;;;;;;;;;5091152;28;20032;-70
2023/10/23 06:35:59;;;;;;;0.10;0.10;;;;;;;;;;5091096;28;20089;-70
2023/10/23 06:38:31;;;;;;;0.10;0.10;;;;;;;;;;5090674;28;20028;-69
2023/10/23 06:41:11;;;;;;;0.10;0.10;;;;;;;;;;5091228;28;20079;-69
2023/10/23 06:43:42;;;;;;;0.10;0.10;;;;;;;;;;5090993;28;20032;-69
2023/10/23 06:46:08;;;;;;;0.10;0.10;;;;;;;;;;5072598;28;20032;-69
2023/10/23 06:48:54;;;;;;;0.10;0.10;;;;;;;;;;5072728;28;20078;-70
2023/10/23 06:51:22;;;;;;;0.47;0.47;;;;;;;;;;5090300;28;20879;-69
2023/10/23 06:53:48;;;;;;;0.10;0.10;;;;;;;;;;5072517;28;20043;-69
2023/10/23 06:56:14;;;;;;;0.10;0.10;;;;;;;;;;5090488;28;20028;-69
2023/10/23 06:58:54;;;;;;;0.10;0.10;;;;;;;;;;5090380;28;20047;-69
2023/10/23 07:01:20;;;;;;;0.17;0.17;;;;;;;;;;5089658;28;20078;-70
2023/10/23 07:04:00;;;;;;;0.17;0.17;;;;;;;;;;5090396;28;20028;-70
2023/10/23 07:06:25;;;;;;;0.17;0.17;;;;;;;;;;5072534;28;20224;-70
2023/10/23 07:08:51;;;;;;;0.10;0.10;;;;;;;;;;5090511;28;20115;-70
2023/10/23 07:11:19;;;;;;;0.20;0.20;;;;;;;;;;5070336;28;20430;-69
2023/10/23 07:13:45;;;;;;;0.13;0.13;;;;;;;;;;5070267;28;20054;-70
2023/10/23 07:16:16;;;;;;;0.20;0.20;;;;;;;;;;5090356;28;20100;-70
2023/10/23 07:18:47;;;;;;;0.17;0.17;;;;;;;;;;5090514;28;20032;-70
2023/10/23 07:21:13;;;;;;;0.10;0.10;;;;;;;;;;5088354;28;20034;-70
2023/10/23 07:23:41;;;;;;;0.10;0.10;;;;;;;;;;5090526;28;20062;-69
2023/10/23 07:26:12;;;;;;;1.27;0.97;;;;;;;;;;5072571;28;20124;-70
2023/10/23 07:28:43;;;;;;;0.10;0.10;;;;;;;;;;5089951;28;20077;-70
2023/10/23 07:31:13;;;;;;;0.52;0.52;;;;;;;;;;5090252;28;20051;-69
2023/10/23 07:33:42;;;;;;;0.20;0.20;;;;;;;;;;5090812;28;20034;-70
2023/10/23 07:36:11;;;;;;;0.22;0.22;;;;;;;;;;5089994;28;20036;-70
2023/10/23 07:38:46;;;;;;;2.65;2.35;;;;;;;;;;5089570;28;20093;-70
2023/10/23 07:41:20;;;;;;;0.28;0.28;;;;;;;;;;5072367;28;20032;-71
2023/10/23 07:43:51;;;;;;;0.47;0.47;;;;;;;;;;5055484;28;20122;-70
2023/10/23 07:46:19;;;;;;;0.20;0.20;;;;;;;;;;5089943;28;20032;-70
2023/10/23 07:48:51;;;;;;;0.43;0.43;;;;;;;;;;5071517;28;20031;-70
2023/10/23 07:51:17;;;;;;;0.17;0.17;;;;;;;;;;5072143;28;20047;-72
2023/10/23 07:53:45;;;;;;;0.10;0.10;;;;;;;;;;5089840;28;20016;-71
2023/10/23 07:56:14;;;;;;;0.10;0.10;;;;;;;;;;5090045;28;20036;-71
2023/10/23 07:58:40;;;;;;;0.70;0.70;;;;;;;;;;5089733;28;20047;-69
2023/10/23 08:01:12;;;;;;;0.20;0.20;;;;;;;;;;5089651;28;20040;-71
2023/10/23 08:03:41;;;;;;;0.10;0.10;;;;;;;;;;5089896;28;20036;-71
2023/10/23 08:06:08;;;;;;;0.25;0.25;;;;;;;;;;5089982;28;20123;-71
2023/10/23 08:08:37;;;;;;;0.10;0.10;;;;;;;;;;5071466;28;20506;-71
2023/10/23 08:11:04;;;;;;;0.20;0.20;;;;;;;;;;5089629;28;20032;-70
2023/10/23 08:13:36;;;;;;;0.10;0.10;;;;;;;;;;5082682;28;20028;-70
2023/10/23 08:16:07;;;;;;;0.10;0.10;;;;;;;;;;5068109;28;20079;-69
2023/10/23 08:18:36;;;;;;;0.17;0.17;;;;;;;;;;5051313;28;20040;-70
2023/10/23 08:21:21;;;;;;;5.67;5.37;;;;;;;;;;5070874;28;20314;-70
2023/10/23 08:23:52;;;;;;;0.10;0.10;;;;;;;;;;5070305;28;20277;-69
2023/10/23 08:26:18;;;;;;;0.13;0.13;;;;;;;;;;5087301;28;20068;-69
2023/10/23 08:28:44;;;;;;;0.20;0.20;;;;;;;;;;5087912;28;20067;-69
2023/10/23 08:31:09;;;;;;;19.48;18.20;;;;;;;;;;5087364;28;20152;-69
2023/10/23 08:33:35;;;;;;;0.20;0.20;;;;;;;;;;5088366;28;20498;-69
2023/10/23 08:36:00;;;;;;;0.32;0.30;;;;;;;;;;5089009;28;20396;-69
2023/10/23 08:38:27;;;;;;;1.33;0.98;;;;;;;;;;5088837;28;20042;-69
2023/10/23 08:40:53;;;;;;;0.60;0.32;;;;;;;;;;5087678;28;20036;-69
2023/10/23 08:43:18;;;;;;;0.20;0.20;;;;;;;;;;5069018;28;20086;-69
2023/10/23 08:45:44;;;;;;;0.25;0.25;;;;;;;;;;5086698;28;20028;-69
2023/10/23 08:48:09;;;;;;;0.15;0.15;;;;;;;;;;5086641;28;20032;-69
2023/10/23 08:50:36;;;;;;;0.20;0.20;;;;;;;;;;5086698;28;20040;-69
2023/10/23 08:53:06;;;;;;;0.20;0.20;;;;;;;;;;5086943;28;20028;-69
2023/10/23 08:55:32;;;;;;;0.20;0.20;;;;;;;;;;5087770;28;20122;-69
2023/10/23 08:57:59;;;;;;;0.20;0.20;;;;;;;;;;5088584;28;20170;-69
2023/10/23 09:00:25;;;;;;;0.10;0.10;;;;;;;;;;5088647;28;20043;-69
2023/10/23 09:02:51;;;;;;;0.20;0.20;;;;;;;;;;5088713;28;20024;-69
2023/10/23 09:05:16;;;;;;;0.95;0.30;;;;;;;;;;5088255;28;20387;-69
2023/10/23 09:07:42;;;;;;;0.82;0.50;;;;;;;;;;5088232;28;20032;-69
2023/10/23 09:10:08;;;;;;;0.52;0.52;;;;;;;;;;5088330;28;20032;-69
2023/10/23 09:12:35;;;;;;;0.20;0.20;;;;;;;;;;5088505;28;20040;-69
2023/10/23 09:15:16;;;;;;;0.10;0.10;;;;;;;;;;5086453;28;20056;-70
2023/10/23 09:17:42;;;;;;;0.10;0.10;;;;;;;;;;5068603;28;20056;-70
2023/10/23 09:20:19;;;;;;;0.20;0.20;;;;;;;;;;5068306;28;20073;-70
2023/10/23 09:22:48;;;;;;;0.17;0.17;;;;;;;;;;5068133;28;20365;-70
2023/10/23 09:25:17;;;;;;;2.10;2.00;;;;;;;;;;5084495;28;20040;-70
2023/10/23 09:27:43;;;;;;;0.20;0.20;;;;;;;;;;5086877;28;20537;-69
2023/10/23 09:30:09;;;;;;;0.20;0.20;;;;;;;;;;5088268;28;20050;-69
2023/10/23 09:32:36;;;;;;;1.20;0.35;;;;;;;;;;5070045;28;20121;-69
2023/10/23 09:35:02;;;;;;;2.92;0.40;;;;;;;;;;5088236;28;20034;-69
2023/10/23 09:37:29;;;;;;;1.98;0.65;;;;;;;;;;5088700;28;20105;-69
2023/10/23 09:39:58;;;;;;;1.33;0.50;;;;;;;;;;5091005;28;20031;-69
2023/10/23 09:42:31;;;;;;;0.38;0.38;;;;;;;;;;5090048;28;20491;-69
2023/10/23 09:44:57;;;;;;;0.35;0.25;;;;;;;;;;5071489;28;20042;-68
2023/10/23 09:47:23;;;;;;;0.30;0.30;;;;;;;;;;5089457;28;20036;-69
2023/10/23 09:49:50;;;;;;;0.20;0.20;;;;;;;;;;5089764;28;20065;-69
2023/10/23 09:52:17;;;;;;;0.20;0.20;;;;;;;;;;5089672;28;20024;-69
2023/10/23 09:54:43;;;;;;;2.08;0.50;;;;;;;;;;5089588;28;20055;-69
2023/10/23 09:57:10;;;;;;;0.20;0.20;;;;;;;;;;5091393;28;20488;-69
2023/10/23 09:59:42;;;;;;;0.45;0.30;;;;;;;;;;5091566;28;20025;-69
2023/10/23 10:02:09;;;;;;;0.20;0.20;;;;;;;;;;5091156;28;20101;-68
2023/10/23 10:04:54;;;;;;;4.65;0.70;;;;;;;;;;5071230;28;20055;-68
2023/10/23 10:07:36;;;;;;;0.70;0.70;;;;;;;;;;5072227;28;20540;-68
2023/10/23 10:10:08;;;;;;;0.30;0.30;;;;;;;;;;5091656;28;20475;-68
2023/10/23 10:12:38;;;;;;;0.20;0.20;;;;;;;;;;5071788;28;20032;-68
2023/10/23 10:15:08;;;;;;;0.20;0.20;;;;;;;;;;5079587;28;20085;-69
2023/10/23 10:17:39;;;;;;;0.30;0.30;;;;;;;;;;5071017;28;20039;-68
2023/10/23 10:20:09;;;;;;;3.13;0.40;;;;;;;;;;5070747;28;20041;-68
2023/10/23 10:22:39;;;;;;;0.77;0.20;;;;;;;;;;5067200;28;20020;-68
2023/10/23 10:25:15;;;;;;;0.30;0.30;;;;;;;;;;5053623;28;20506;-69
2023/10/23 10:27:41;;;;;;;4.30;0.65;;;;;;;;;;5053020;28;20056;-69
2023/10/23 10:30:27;;;;;;;0.20;0.20;;;;;;;;;;5070751;28;20684;-68
2023/10/23 10:32:55;;;;;;;0.20;0.20;;;;;;;;;;5070563;28;20082;-68
2023/10/23 10:35:28;;;;;;;0.20;0.20;;;;;;;;;;5052878;28;20476;-68
2023/10/23 10:37:58;;;;;;;9.10;3.40;;;;;;;;;;5053000;28;20151;-68
2023/10/23 10:40:24;;;;;;;0.20;0.20;;;;;;;;;;5070562;28;20124;-67
2023/10/23 10:42:50;;;;;;;4.57;0.45;;;;;;;;;;5069482;28;20119;-68
2023/10/23 10:45:16;;;;;;;0.20;0.20;;;;;;;;;;5070490;28;20032;-68
2023/10/23 10:47:51;;;;;;;3.90;0.80;;;;;;;;;;5070715;28;20033;-69
2023/10/23 10:50:30;;;;;;;0.52;0.25;;;;;;;;;;5070846;28;20040;-70
2023/10/23 10:52:56;;;;;;;;;;;;;;;;;;5070974;28;20082;-69
2023/10/23 10:55:21;;;;;;;5.82;0.90;;;;;;;;;;5070595;28;19916;-69
2023/10/23 10:57:47;;;;;;;0.20;0.20;;;;;;;;;;5070542;28;20040;-69
2023/10/23 11:00:13;;;;;;;15.85;1.50;;;;;;;;;;5070556;28;20482;-69
2023/10/23 11:02:39;;;;;;;0.20;0.20;;;;;;;;;;5068962;28;20028;-69
2023/10/23 11:05:11;;;;;;;0.98;0.50;;;;;;;;;;5068377;28;20035;-69
2023/10/23 11:07:37;;;;;;;1.02;0.38;;;;;;;;;;5068436;28;20476;-69
2023/10/23 11:10:04;;;;;;;1.55;0.82;;;;;;;;;;5068451;28;20040;-67
2023/10/23 11:12:31;;;;;;;0.43;0.43;;;;;;;;;;5068339;28;20138;-68
2023/10/23 11:15:21;;;;;;;1.60;0.63;;;;;;;;;;5054165;28;20055;-69
2023/10/23 11:17:47;;;;;;;1.08;0.88;;;;;;;;;;5051527;28;20396;-68
2023/10/23 11:33:00;;;;;;;2.05;0.50;;;;;;;;;;5168192;27;20170;-74
2023/10/23 11:35:33;;;;;;;4.30;0.65;;;;;;;;;;5167615;27;20503;-73
2023/10/23 11:37:59;;;;;;;3.28;0.88;;;;;;;;;;5149242;27;20414;-74
2023/10/23 11:40:25;;;;;;;7.43;0.73;;;;;;;;;;5167087;27;20058;-74
2023/10/23 11:42:55;;;;;;;0.75;0.63;;;;;;;;;;5167740;27;20030;-74
2023/10/23 11:45:20;;;;;;;0.30;0.30;;;;;;;;;;5167562;27;20397;-75
2023/10/23 11:47:48;;;;;;;1.88;0.70;;;;;;;;;;5148757;27;20032;-74
2023/10/23 11:50:14;;;;;;;6.47;0.88;;;;;;;;;;5167507;27;20508;-74
2023/10/23 11:52:43;;;;;;;0.20;0.20;;;;;;;;;;5167168;27;20026;-74
2023/10/23 11:55:10;;;;;;;2.55;0.68;;;;;;;;;;5167345;27;20029;-74
2023/10/23 11:57:37;;;;;;;0.50;0.50;;;;;;;;;;5167239;27;20553;-74
2023/10/23 12:00:06;;;;;;;0.85;0.47;;;;;;;;;;5149059;27;20456;-74
2023/10/23 12:02:38;;;;;;;0.20;0.20;;;;;;;;;;5166979;27;20453;-75
2023/10/23 12:05:03;;;;;;;2.47;0.68;;;;;;;;;;5166992;27;20473;-74
2023/10/23 12:07:29;;;;;;;4.57;0.95;;;;;;;;;;5167098;27;20083;-74
2023/10/23 12:09:54;;;;;;;0.30;0.30;;;;;;;;;;5166935;27;20503;-74
2023/10/23 12:12:20;;;;;;;2.97;0.70;;;;;;;;;;5167100;27;20366;-74
2023/10/23 12:14:46;;;;;;;5.25;0.73;;;;;;;;;;5167852;27;20034;-74
2023/10/23 12:17:11;;;;;;;0.30;0.30;;;;;;;;;;5150320;27;20041;-74
2023/10/23 12:19:37;;;;;;;3.33;0.77;;;;;;;;;;5168868;27;20101;-74
2023/10/23 12:22:02;;;;;;;0.55;0.55;;;;;;;;;;5152852;27;20037;-74
2023/10/23 12:24:28;;;;;;;3.13;0.32;;;;;;;;;;5127914;27;20479;-74
2023/10/23 12:26:53;;;;;;;2.50;0.73;;;;;;;;;;5146208;27;20425;-74
2023/10/23 12:29:19;;;;;;;6.43;0.80;;;;;;;;;;5146221;27;20038;-74
2023/10/23 12:31:45;;;;;;;1.88;0.30;;;;;;;;;;5145908;27;20054;-75
2023/10/23 12:34:10;;;;;;;0.95;0.47;;;;;;;;;;5132069;28;20066;-74
2023/10/23 12:36:36;;;;;;;0.30;0.30;;;;;;;;;;5131954;28;20598;-74
2023/10/23 12:39:01;;;;;;;1.45;0.65;;;;;;;;;;5132714;28;20035;-74
2023/10/23 12:41:27;;;;;;;1.17;0.30;;;;;;;;;;5113890;28;20413;-74
2023/10/23 12:43:52;;;;;;;1.00;0.80;;;;;;;;;;5132444;28;20035;-74
2023/10/23 12:46:18;;;;;;;5.45;0.70;;;;;;;;;;5132142;28;20374;-74
2023/10/23 12:48:43;;;;;;;1.65;0.75;;;;;;;;;;5131886;28;20130;-75
2023/10/23 12:51:09;;;;;;;2.92;0.60;;;;;;;;;;5131965;28;20037;-74
2023/10/23 12:53:35;;;;;;;1.85;0.88;;;;;;;;;;5132116;28;20035;-74
2023/10/23 12:56:01;;;;;;;4.38;0.98;;;;;;;;;;5113694;28;20031;-74
2023/10/23 12:58:26;;;;;;;2.03;0.63;;;;;;;;;;5131764;28;20462;-74
2023/10/23 13:00:52;;;;;;;0.20;0.20;;;;;;;;;;5131833;28;20024;-74
2023/10/23 13:03:18;;;;;;;0.20;0.20;;;;;;;;;;5131845;28;20092;-74
2023/10/23 13:05:44;;;;;;;0.80;0.40;;;;;;;;;;5131955;28;20470;-74
2023/10/23 13:08:09;;;;;;;0.85;0.75;;;;;;;;;;5131923;28;20462;-74
2023/10/23 13:10:35;;;;;;;0.20;0.20;;;;;;;;;;5131580;28;20073;-74
2023/10/23 13:13:00;;;;;;;0.80;0.45;;;;;;;;;;5131876;28;20030;-74
2023/10/23 13:15:26;;;;;;;1.05;0.50;;;;;;;;;;5131879;28;20075;-74
2023/10/23 13:17:56;;;;;;;0.25;0.25;;;;;;;;;;5113877;28;20020;-74
2023/10/23 13:20:21;;;;;;;0.20;0.20;;;;;;;;;;5131855;28;20035;-74
2023/10/23 13:22:47;;;;;;;2.08;0.70;;;;;;;;;;5131588;27;20207;-74
2023/10/23 13:25:13;;;;;;;7.13;1.40;;;;;;;;;;5113321;28;20039;-74
2023/10/23 13:27:39;;;;;;;2.03;1.02;;;;;;;;;;5131693;28;20096;-74
2023/10/23 13:30:05;;;;;;;5.40;0.60;;;;;;;;;;5131196;28;20042;-75
2023/10/23 13:32:30;;;;;;;0.20;0.20;;;;;;;;;;5131311;28;20363;-75
2023/10/23 13:34:56;;;;;;;0.30;0.25;;;;;;;;;;5131987;28;20057;-74
2023/10/23 13:37:22;;;;;;;2.72;0.73;;;;;;;;;;5131342;28;20034;-74
2023/10/23 13:39:47;;;;;;;2.97;1.52;;;;;;;;;;5131104;28;20019;-74
2023/10/23 13:42:12;;;;;;;0.77;0.40;;;;;;;;;;5113039;28;20043;-74
2023/10/23 13:44:38;;;;;;;5.72;1.10;;;;;;;;;;5129537;27;20036;-74
2023/10/23 13:47:04;;;;;;;4.53;1.00;;;;;;;;;;5131477;28;20043;-74
2023/10/23 13:49:29;;;;;;;0.20;0.20;;;;;;;;;;5131250;28;20430;-75
2023/10/23 13:51:55;;;;;;;4.90;1.00;;;;;;;;;;5131007;28;20031;-74
2023/10/23 13:54:20;;;;;;;0.50;0.40;;;;;;;;;;5131227;28;20031;-75
2023/10/23 13:56:47;;;;;;;1.83;0.70;;;;;;;;;;5130811;28;20470;-75
2023/10/23 13:59:12;;;;;;;0.20;0.20;;;;;;;;;;5131015;28;20468;-75
2023/10/23 14:01:38;;;;;;;1.27;0.45;;;;;;;;;;5130579;28;20031;-75
2023/10/23 14:04:03;;;;;;;6.43;1.05;;;;;;;;;;5112730;28;20035;-75
2023/10/23 14:06:29;;;;;;;0.28;0.28;;;;;;;;;;5130320;28;20081;-75
2023/10/23 14:08:55;;;;;;;3.33;1.42;;;;;;;;;;5131001;28;20458;-74
2023/10/23 14:11:21;;;;;;;1.00;1.00;;;;;;;;;;5130948;28;20583;-74
2023/10/23 14:13:46;;;;;;;0.28;0.28;;;;;;;;;;5130758;28;20035;-75
2023/10/23 14:16:15;;;;;;;3.83;1.27;;;;;;;;;;5124873;28;20466;-75
2023/10/23 14:18:41;;;;;;;1.15;0.75;;;;;;;;;;5105768;28;20058;-75
2023/10/23 14:21:07;;;;;;;1.38;0.68;;;;;;;;;;5091224;28;20079;-75
2023/10/23 14:23:35;;;;;;;1.98;0.82;;;;;;;;;;5104796;28;20060;-75
2023/10/23 14:26:01;;;;;;;5.55;1.05;;;;;;;;;;5119315;28;20068;-75
2023/10/23 14:28:27;;;;;;;3.38;1.40;;;;;;;;;;5100800;28;20052;-75
2023/10/23 14:30:53;;;;;;;3.90;1.00;;;;;;;;;;5117857;28;20081;-75
2023/10/23 14:33:18;;;;;;;2.83;0.68;;;;;;;;;;5123740;28;20554;-75
2023/10/23 14:35:47;;;;;;;20.05;0.73;;;;;;;;;;5109900;28;20036;-75
2023/10/23 14:38:13;;;;;;;0.30;0.30;;;;;;;;;;5109718;28;20037;-74
2023/10/23 14:40:38;;;;;;;0.50;0.50;;;;;;;;;;5130131;27;20074;-74
2023/10/23 14:43:04;;;;;;;2.40;0.40;;;;;;;;;;5110587;28;20043;-74
2023/10/23 14:45:30;;;;;;;1.83;0.90;;;;;;;;;;5130194;28;20477;-74
2023/10/23 14:47:56;;;;;;;0.93;0.50;;;;;;;;;;5110130;28;20117;-74
2023/10/23 14:50:22;;;;;;;0.20;0.20;;;;;;;;;;5128149;28;20035;-74
2023/10/23 14:52:48;;;;;;;3.85;0.98;;;;;;;;;;5127996;28;20542;-75
2023/10/23 14:55:14;;;;;;;4.13;1.20;;;;;;;;;;5128739;27;20076;-74
2023/10/23 14:57:39;;;;;;;4.78;0.85;;;;;;;;;;5128865;27;20027;-74
2023/10/23 15:00:06;;;;;;;0.70;0.45;;;;;;;;;;5129045;28;20077;-74
2023/10/23 15:02:32;;;;;;;5.97;1.42;;;;;;;;;;5093633;28;20038;-75